Time;durP1;ratioP1;P1;durP2;ratioP2;P2;SDS_P1;SDS_P2;PMS_P1;PMS_P2;Temp;Humidity;BMP_temperature;BMP_pressure;BME280_temperature;BME280_humidity;BME280_pressure;Samples;Min_cycle;Max_cycle;Signal;HPM_P1;HPM_P2
2022/06/09 00:01:48;;;;;;;3.42;2.88;;;16.50;99.90;;;16.75;100.00;99953.91;5047200;28;20044;-78
2022/06/09 00:04:31;;;;;;;2.65;2.20;;;16.50;99.90;;;16.68;100.00;99966.66;5028711;28;20467;-78
2022/06/09 00:07:08;;;;;;;3.83;2.20;;;16.60;99.90;;;16.63;100.00;99969.59;5031740;28;20422;-77
2022/06/09 00:09:42;;;;;;;3.95;2.30;;;16.60;99.90;;;16.58;100.00;99966.31;5046619;28;20045;-77
2022/06/09 00:12:09;;;;;;;3.80;2.58;;;16.50;99.90;;;16.62;100.00;99975.00;5033824;28;20053;-77
2022/06/09 00:14:37;;;;;;;2.90;2.05;;;16.50;99.90;;;16.66;100.00;99984.50;5048992;28;20041;-77
2022/06/09 00:17:05;;;;;;;3.22;2.13;;;16.50;99.90;;;16.64;100.00;99976.63;5032066;28;20144;-78
2022/06/09 00:19:32;;;;;;;4.30;2.67;;;16.50;99.90;;;16.68;100.00;99983.47;5022944;28;20045;-77
2022/06/09 00:21:59;;;;;;;3.90;2.53;;;16.50;99.90;;;16.62;100.00;99986.44;5014230;28;20395;-78
2022/06/09 00:24:26;;;;;;;4.18;2.20;;;16.70;99.90;;;16.64;100.00;99981.94;5012954;28;20042;-77
2022/06/09 00:26:53;;;;;;;2.58;2.28;;;16.50;99.90;;;16.66;100.00;99984.50;5051816;28;20037;-77
2022/06/09 00:29:21;;;;;;;2.40;2.20;;;16.50;99.90;;;16.60;100.00;99985.69;5050944;28;20135;-78
2022/06/09 00:31:48;;;;;;;2.63;2.22;;;16.50;99.90;;;16.59;100.00;99982.19;5035046;28;20136;-77
2022/06/09 00:34:15;;;;;;;2.38;2.00;;;16.50;99.90;;;16.61;100.00;99991.88;5049593;28;20383;-77
2022/06/09 00:36:42;;;;;;;4.38;2.00;;;16.50;99.90;;;16.56;100.00;99992.13;5033767;28;20585;-77
2022/06/09 00:39:09;;;;;;;4.53;2.15;;;16.40;99.90;;;16.49;100.00;99998.72;5019912;28;20072;-77
2022/06/09 00:41:42;;;;;;;9.15;2.22;;;16.40;99.90;;;16.52;100.00;99998.53;4998155;28;20586;-77
2022/06/09 00:44:24;;;;;;;5.22;2.33;;;16.40;99.90;;;16.51;100.00;100002.97;5030398;28;20518;-77
2022/06/09 00:47:43;;;;;;;6.70;2.10;;;16.40;99.90;;;16.51;100.00;100007.44;5030994;28;20050;-78
2022/06/09 00:50:19;;;;;;;1.77;1.58;;;16.40;99.90;;;16.50;100.00;100000.44;5012590;28;20070;-77
2022/06/09 00:52:53;;;;;;;2.08;1.73;;;16.40;99.90;;;16.44;100.00;99996.31;5014258;28;20075;-75
2022/06/09 00:55:24;;;;;;;2.42;1.83;;;16.40;99.90;;;16.39;100.00;100009.81;5037301;28;20067;-78
2022/06/09 00:58:19;;;;;;;4.10;1.90;;;16.50;99.90;;;16.41;100.00;100007.09;5034301;28;20056;-77
2022/06/09 01:00:54;;;;;;;2.10;1.70;;;16.30;99.90;;;16.39;100.00;100008.94;5033165;28;20041;-77
2022/06/09 01:03:28;;;;;;;1.90;1.55;;;18.10;99.90;;;16.38;100.00;99999.28;5032448;28;20045;-77
2022/06/09 01:06:06;;;;;;;5.45;1.80;;;16.30;99.90;;;16.40;100.00;100006.22;5049195;28;20045;-77
2022/06/09 01:08:40;;;;;;;2.55;1.70;;;16.30;99.90;;;16.35;100.00;100008.28;5034978;28;20109;-77
2022/06/09 01:11:07;;;;;;;1.70;1.60;;;16.30;99.90;;;16.27;100.00;99999.88;5047608;28;20056;-76
2022/06/09 01:13:34;;;;;;;2.63;2.08;;;16.30;99.90;;;16.25;100.00;100007.06;5032401;28;20053;-77
2022/06/09 01:16:33;;;;;;;2.97;1.60;;;16.20;99.90;;;16.28;100.00;100009.53;5030377;28;20052;-77
2022/06/09 01:19:44;;;;;;;3.78;1.60;;;16.20;99.90;;;16.28;100.00;100014.84;5042473;28;20041;-77
2022/06/09 01:22:57;;;;;;;4.43;1.65;;;16.20;99.90;;;16.19;100.00;100004.75;5035843;28;20502;-77
2022/06/09 01:25:39;;;;;;;2.03;1.50;;;16.20;99.90;;;16.28;100.00;100014.84;5017143;28;20048;-77
2022/06/09 01:28:15;;;;;;;3.35;1.70;;;14.50;99.90;;;16.21;100.00;100016.13;5032354;28;20072;-77
2022/06/09 01:30:58;;;;;;;3.53;1.75;;;16.10;99.90;;;16.18;100.00;100029.56;5029493;28;20045;-77
2022/06/09 01:33:43;;;;;;;4.10;1.33;;;16.10;99.90;;;16.16;100.00;100021.69;5044201;28;20045;-76
2022/06/09 01:36:19;;;;;;;4.80;1.48;;;16.10;99.90;;;16.10;100.00;100014.88;5044023;28;20042;-77
2022/06/09 01:38:56;;;;;;;2.85;1.20;;;16.10;99.90;;;16.13;100.00;100025.34;5028037;28;20033;-77
2022/06/09 01:41:25;;;;;;;2.60;1.55;;;16.10;99.90;;;16.03;100.00;100024.13;5044626;28;20044;-77
2022/06/09 01:43:54;;;;;;;2.85;1.67;;;16.50;99.90;;;16.02;100.00;100031.22;5028493;28;20064;-77
2022/06/09 01:46:32;;;;;;;4.13;1.63;;;16.00;99.90;;;16.02;100.00;100027.72;5028256;28;20045;-77
2022/06/09 01:49:27;;;;;;;4.00;1.40;;;16.00;99.90;;;15.97;100.00;100030.59;5027533;28;20060;-78
2022/06/09 01:51:56;;;;;;;5.82;2.17;;;16.00;99.90;;;16.00;100.00;100029.56;5025710;28;20061;-77
2022/06/09 01:54:49;;;;;;;3.35;1.70;;;16.00;99.90;;;15.98;100.00;100039.41;5043735;28;20063;-77
2022/06/09 01:57:24;;;;;;;2.00;1.58;;;15.90;99.90;;;15.94;100.00;100035.22;5024866;28;20049;-76
2022/06/09 02:00:20;;;;;;;2.45;1.52;;;15.90;99.90;;;16.02;100.00;100035.69;5027611;28;20563;-77
2022/06/09 02:02:50;;;;;;;4.68;1.50;;;15.90;99.90;;;15.98;100.00;100036.75;5023130;28;20045;-76
2022/06/09 02:05:26;;;;;;;3.03;1.40;;;15.90;99.90;;;15.96;100.00;100030.69;5027841;28;20041;-77
2022/06/09 02:07:57;;;;;;;3.42;1.58;;;15.90;99.90;;;15.94;100.00;100033.44;5026143;28;20445;-77
2022/06/09 02:10:34;;;;;;;3.65;1.67;;;15.90;99.90;;;15.91;100.00;100035.38;5010617;28;20050;-76
2022/06/09 02:13:29;;;;;;;3.10;1.70;;;17.10;99.90;;;15.89;100.00;100027.47;5027686;28;20049;-76
2022/06/09 02:16:05;;;;;;;3.92;2.50;;;15.80;99.90;;;15.92;100.00;100027.34;5027233;28;20753;-77
2022/06/09 02:18:46;;;;;;;3.10;2.22;;;15.80;99.90;;;15.86;100.00;100032.91;5027263;28;20052;-76
2022/06/09 02:21:33;;;;;;;3.20;1.92;;;15.80;99.90;;;15.86;100.00;100036.44;5026892;28;20362;-77
2022/06/09 02:24:00;;;;;;;3.03;2.00;;;15.80;99.90;;;15.81;100.00;100040.25;5012529;28;20050;-77
2022/06/09 02:26:28;;;;;;;6.47;2.28;;;15.70;99.90;;;15.83;100.00;100039.22;5040600;28;20099;-77
2022/06/09 02:28:55;;;;;;;4.00;2.20;;;15.70;99.90;;;15.85;100.00;100048.00;5047574;28;20045;-76
2022/06/09 02:31:23;;;;;;;4.50;2.20;;;15.70;99.90;;;15.85;100.00;100047.13;5046540;28;20041;-77
2022/06/09 02:33:52;;;;;;;2.63;1.90;;;15.70;99.90;;;15.83;100.00;100057.81;5023954;28;20053;-77
2022/06/09 02:36:19;;;;;;;2.55;1.85;;;15.70;99.90;;;15.83;100.00;100063.09;5010704;28;20045;-76
2022/06/09 02:38:47;;;;;;;3.95;1.98;;;15.70;99.90;;;15.83;100.00;100056.97;5025944;28;20048;-77
2022/06/09 02:41:14;;;;;;;4.82;2.00;;;15.70;99.90;;;15.85;100.00;100061.25;5026445;28;20045;-76
2022/06/09 02:43:42;;;;;;;4.60;2.33;;;15.70;99.90;;;15.86;100.00;100056.78;5026325;28;20042;-77
2022/06/09 02:46:09;;;;;;;4.50;2.13;;;15.70;99.90;;;15.80;100.00;100062.44;5026651;28;20049;-76
2022/06/09 02:48:37;;;;;;;3.42;2.20;;;15.70;99.90;;;15.80;100.00;100057.97;5026599;28;20041;-77
2022/06/09 02:51:33;;;;;;;5.00;2.17;;;15.70;99.90;;;15.83;100.00;100060.44;5025683;28;20052;-77
2022/06/09 02:54:10;;;;;;;3.10;1.90;;;15.70;99.90;;;15.88;100.00;100066.41;5026060;28;20048;-77
2022/06/09 02:56:38;;;;;;;6.22;2.60;;;15.70;99.90;;;15.85;100.00;100065.69;5027885;28;20730;-77
2022/06/09 02:59:05;;;;;;;7.00;2.22;;;15.80;99.90;;;15.88;100.00;100073.50;5025771;28;20095;-76
2022/06/09 03:01:32;;;;;;;2.88;2.17;;;15.70;99.90;;;15.92;100.00;100075.09;5042268;28;20607;-76
2022/06/09 03:04:00;;;;;;;3.63;2.20;;;15.70;99.90;;;15.92;100.00;100071.56;5025798;28;20050;-77
2022/06/09 03:06:27;;;;;;;3.58;2.55;;;15.70;99.90;;;15.85;100.00;100071.88;5042536;28;20056;-77
2022/06/09 03:08:53;;;;;;;3.08;2.45;;;15.80;99.90;;;15.88;100.00;100078.78;5042284;28;20046;-76
2022/06/09 03:11:21;;;;;;;2.72;2.05;;;15.80;99.90;;;15.86;100.00;100072.72;5026909;28;20068;-77
2022/06/09 03:13:48;;;;;;;2.72;2.40;;;15.70;99.90;;;15.89;100.00;100083.19;5042196;28;20049;-76
2022/06/09 03:16:16;;;;;;;4.63;3.08;;;15.70;99.90;;;15.88;100.00;100089.41;5025437;28;20037;-76
2022/06/09 03:18:44;;;;;;;4.72;2.40;;;15.70;99.90;;;15.84;100.00;100083.41;5041539;28;20093;-75
2022/06/09 03:21:13;;;;;;;3.30;2.35;;;15.70;99.90;;;15.85;100.00;100085.13;5041250;28;20044;-76
2022/06/09 03:23:41;;;;;;;3.67;2.20;;;13.90;99.90;;;15.81;100.00;100094.16;5032569;28;20049;-76
2022/06/09 03:26:08;;;;;;;4.40;2.85;;;15.70;99.90;;;15.86;100.00;100094.81;5003478;28;20050;-76
2022/06/09 03:28:36;;;;;;;2.97;2.30;;;15.70;99.90;;;15.79;100.00;100089.88;5026950;28;20407;-76
2022/06/09 03:31:03;;;;;;;6.28;2.97;;;15.70;99.90;;;15.83;100.00;100086.97;5040834;28;20147;-76
2022/06/09 03:33:30;;;;;;;5.07;2.40;;;15.70;99.90;;;15.82;100.00;100089.72;5041862;28;20041;-76
2022/06/09 03:35:57;;;;;;;4.05;2.50;;;15.70;99.90;;;15.64;100.00;100094.16;5025662;28;20045;-76
2022/06/09 03:38:24;;;;;;;4.35;2.30;;;15.70;99.90;;;15.76;100.00;100090.88;5041858;28;20045;-76
2022/06/09 03:40:52;;;;;;;7.97;2.35;;;15.60;99.90;;;15.69;100.00;100092.16;5041154;28;20041;-75
2022/06/09 03:43:18;;;;;;;3.13;2.25;;;15.70;99.90;;;15.76;100.00;100090.03;5025071;28;20052;-76
2022/06/09 03:45:46;;;;;;;4.55;2.92;;;15.70;99.90;;;15.70;100.00;100094.69;5044932;28;20041;-76
2022/06/09 03:48:13;;;;;;;4.00;2.53;;;15.60;99.90;;;15.73;100.00;100099.84;5028602;28;20068;-76
2022/06/09 03:50:40;;;;;;;5.85;3.05;;;15.70;99.90;;;15.69;100.00;100098.28;5028412;28;20064;-76
2022/06/09 03:53:07;;;;;;;5.55;2.95;;;15.70;99.90;;;15.64;100.00;100096.81;5028798;28;20413;-76
2022/06/09 03:55:35;;;;;;;5.75;2.78;;;15.70;99.90;;;15.67;100.00;100097.50;5030565;28;20045;-76
2022/06/09 03:58:03;;;;;;;3.35;2.42;;;15.70;99.90;;;15.62;100.00;100104.84;5029492;28;20046;-76
2022/06/09 04:00:32;;;;;;;5.03;2.75;;;15.60;99.90;;;15.62;100.00;100101.31;5027516;28;20050;-75
2022/06/09 04:02:59;;;;;;;5.68;2.70;;;15.60;99.90;;;15.58;100.00;100096.19;5030868;28;20602;-77
2022/06/09 04:05:28;;;;;;;3.33;2.45;;;15.60;99.90;;;15.56;100.00;100099.84;5029101;28;20065;-77
2022/06/09 04:07:57;;;;;;;3.22;2.33;;;15.50;99.90;;;15.65;100.00;100099.38;5045911;28;20071;-77
2022/06/09 04:10:28;;;;;;;4.18;2.10;;;15.50;99.90;;;15.58;100.00;100100.59;5045048;28;20053;-77
2022/06/09 04:12:55;;;;;;;4.60;2.55;;;15.60;99.90;;;15.60;100.00;100098.72;5012548;28;20256;-77
2022/06/09 04:15:23;;;;;;;6.55;2.88;;;15.50;99.90;;;15.58;100.00;100106.78;5045373;28;20053;-77
2022/06/09 04:17:54;;;;;;;3.72;2.47;;;15.50;99.90;;;15.52;100.00;100099.13;5029263;28;20140;-77
2022/06/09 04:20:24;;;;;;;3.13;2.40;;;15.50;99.90;;;15.54;100.00;100099.94;5041881;28;20041;-75
2022/06/09 04:22:52;;;;;;;5.40;2.25;;;15.50;99.90;;;15.54;100.00;100101.69;5029971;28;20041;-77
2022/06/09 04:25:20;;;;;;;4.28;2.33;;;15.60;99.90;;;15.53;100.00;100100.00;5036279;28;20494;-76
2022/06/09 04:27:48;;;;;;;6.32;2.88;;;15.50;99.90;;;15.49;100.00;100104.56;5049738;28;20049;-75
2022/06/09 04:30:16;;;;;;;6.63;2.40;;;15.40;99.90;;;15.45;100.00;100111.84;5049869;28;20451;-77
2022/06/09 04:32:51;;;;;;;5.78;2.35;;;15.40;99.90;;;15.43;100.00;100120.78;5049271;28;20049;-77
2022/06/09 04:35:18;;;;;;;5.47;2.83;;;15.40;99.90;;;15.45;100.00;100125.09;5033747;28;20053;-77
2022/06/09 04:38:01;;;;;;;3.72;2.30;;;15.40;99.90;;;15.47;100.00;100130.31;5030080;28;20115;-76
2022/06/09 04:40:36;;;;;;;5.78;2.42;;;15.40;99.90;;;15.43;100.00;100134.03;5027182;28;20045;-77
2022/06/09 04:43:07;;;;;;;5.80;2.53;;;15.40;99.90;;;15.40;100.00;100120.94;5028816;28;20040;-76
2022/06/09 04:45:36;;;;;;;5.82;2.60;;;15.40;99.90;;;15.41;100.00;100134.09;5027929;28;20542;-77
2022/06/09 04:48:04;;;;;;;7.25;2.25;;;15.40;99.90;;;15.44;100.00;100139.25;5013558;28;20045;-77
2022/06/09 04:50:32;;;;;;;3.97;2.38;;;15.40;99.90;;;15.41;100.00;100138.56;5029184;28;20057;-82
2022/06/09 04:52:59;;;;;;;5.22;2.28;;;15.40;99.90;;;15.45;100.00;100140.13;5001999;28;20076;-78
2022/06/09 04:55:26;;;;;;;4.28;2.20;;;15.50;99.90;;;15.45;100.00;100148.09;5035621;28;20072;-77
2022/06/09 04:57:54;;;;;;;4.22;2.10;;;15.50;99.90;;;15.43;100.00;100145.50;5055435;28;20037;-77
2022/06/09 05:00:22;;;;;;;4.53;2.80;;;15.50;99.90;;;15.41;100.00;100150.00;5050855;28;20045;-77
2022/06/09 05:02:51;;;;;;;6.03;2.83;;;15.50;99.90;;;15.46;100.00;100155.09;5036855;28;20125;-77
2022/06/09 05:05:29;;;;;;;6.47;2.90;;;15.40;99.90;;;15.41;100.00;100168.56;5052058;28;20136;-77
2022/06/09 05:07:57;;;;;;;6.20;2.58;;;15.40;99.90;;;15.43;100.00;100161.41;5032558;28;20448;-77
2022/06/09 05:10:27;;;;;;;7.43;3.20;;;15.40;99.90;;;15.44;100.00;100168.41;5015781;28;20042;-77
2022/06/09 05:12:55;;;;;;;7.10;2.60;;;15.40;99.90;;;15.40;100.00;100171.31;5028474;28;20050;-75
2022/06/09 05:15:23;;;;;;;5.88;2.97;;;15.40;99.90;;;15.43;100.00;100171.16;5012665;28;20673;-77
2022/06/09 05:17:51;;;;;;;10.23;2.78;;;15.40;99.90;;;15.42;100.00;100172.94;5028117;28;20060;-77
2022/06/09 05:20:22;;;;;;;6.32;3.60;;;17.10;99.90;;;15.43;100.00;100185.25;5028840;28;20517;-77
2022/06/09 05:22:49;;;;;;;6.47;2.80;;;15.50;99.90;;;15.42;100.00;100185.34;5004396;28;20053;-76
2022/06/09 05:25:17;;;;;;;4.97;3.00;;;15.40;99.90;;;15.48;100.00;100192.16;5009441;28;20038;-77
2022/06/09 05:27:45;;;;;;;6.53;3.63;;;15.50;99.90;;;15.54;100.00;100197.16;5018096;28;20411;-79
2022/06/09 05:30:18;;;;;;;9.07;3.47;;;15.40;99.90;;;15.57;100.00;100203.19;5030503;28;20037;-79
2022/06/09 05:32:45;;;;;;;8.40;3.50;;;15.50;99.90;;;15.55;100.00;100198.88;5011064;28;20415;-78
2022/06/09 05:35:12;;;;;;;6.18;3.25;;;15.50;99.90;;;15.59;100.00;100200.44;5010379;28;20048;-79
2022/06/09 05:45:59;;;;;;;10.30;3.55;;;15.60;99.90;;;15.55;100.00;100194.44;5031410;28;20041;-78
2022/06/09 05:48:27;;;;;;;6.30;3.05;;;15.60;99.90;;;15.64;100.00;100209.06;5030282;28;20046;-79
2022/06/09 05:50:55;;;;;;;7.57;3.40;;;15.50;99.90;;;15.56;100.00;100212.06;5029823;28;20533;-78
2022/06/09 05:53:22;;;;;;;8.63;3.80;;;15.60;99.90;;;15.68;100.00;100213.28;5029822;28;20049;-78
2022/06/09 05:55:49;;;;;;;9.13;4.40;;;15.70;99.90;;;15.66;100.00;100216.91;5041377;28;20670;-78
2022/06/09 05:58:16;;;;;;;8.93;4.00;;;15.70;99.90;;;15.80;100.00;100230.38;5049691;28;20041;-78
2022/06/09 06:00:45;;;;;;;7.53;3.45;;;15.70;99.90;;;15.87;100.00;100233.59;5049489;28;20043;-78
2022/06/09 06:03:15;;;;;;;5.57;3.65;;;15.80;99.90;;;15.81;100.00;100236.56;5042297;28;20079;-77
2022/06/09 06:08:29;;;;;;;6.90;3.20;;;15.80;99.90;;;15.87;100.00;100236.25;5050753;28;20135;-79
2022/06/09 06:10:56;;;;;;;11.23;3.92;;;15.80;99.90;;;15.84;100.00;100237.28;5050253;28;20044;-79
2022/06/09 06:13:24;;;;;;;11.35;3.75;;;15.80;99.90;;;15.90;100.00;100238.78;5030917;28;20099;-78
2022/06/09 06:15:52;;;;;;;10.45;3.65;;;15.80;99.90;;;15.82;100.00;100241.78;5029636;28;20049;-78
2022/06/09 06:18:30;;;;;;;8.77;3.67;;;15.90;99.90;;;15.80;100.00;100248.94;5030975;28;20092;-78
2022/06/09 06:20:58;;;;;;;8.23;3.47;;;16.50;99.90;;;15.98;100.00;100249.91;5030359;28;20046;-77
2022/06/09 06:23:26;;;;;;;6.78;3.10;;;15.90;99.90;;;16.02;100.00;100250.63;5030549;28;20050;-79
2022/06/09 06:25:55;;;;;;;8.23;3.33;;;15.90;99.90;;;16.08;100.00;100249.44;5029947;28;20073;-78
2022/06/09 06:28:23;;;;;;;10.73;2.95;;;16.00;99.90;;;16.21;100.00;100250.56;5046130;28;20060;-78
2022/06/09 06:30:56;;;;;;;11.98;3.38;;;16.10;99.90;;;16.22;100.00;100264.69;5029605;28;20560;-78
2022/06/09 06:33:24;;;;;;;7.63;2.95;;;16.20;99.90;;;16.24;100.00;100269.00;5046162;28;20128;-76
2022/06/09 06:35:51;;;;;;;7.65;3.22;;;16.50;99.90;;;16.26;100.00;100268.91;5047257;28;20640;-78
2022/06/09 06:38:18;;;;;;;6.80;2.50;;;16.20;99.90;;;16.24;100.00;100279.63;5041206;28;20052;-78
2022/06/09 06:40:45;;;;;;;6.03;2.28;;;16.20;99.90;;;16.31;100.00;100266.88;5006790;28;20054;-76
2022/06/09 06:43:13;;;;;;;7.78;2.97;;;16.30;99.90;;;16.32;100.00;100265.09;4994447;28;20108;-78
2022/06/09 06:45:41;;;;;;;3.83;2.20;;;16.30;99.90;;;16.31;100.00;100282.81;5010667;28;20114;-78
2022/06/09 06:48:09;;;;;;;5.57;2.33;;;16.30;99.90;;;16.32;100.00;100283.69;4995872;28;20519;-78
2022/06/09 06:50:36;;;;;;;4.88;2.10;;;16.40;99.90;;;16.41;100.00;100285.91;5011210;28;20545;-77
2022/06/09 06:53:03;;;;;;;6.60;2.28;;;16.40;99.90;;;16.27;100.00;100292.75;5028004;28;20061;-79
2022/06/09 06:55:31;;;;;;;7.97;2.78;;;16.40;99.90;;;16.30;100.00;100299.66;5029948;28;20140;-78
2022/06/09 06:58:01;;;;;;;6.00;2.00;;;16.40;99.90;;;16.42;100.00;100296.41;5052007;28;20389;-78
2022/06/09 07:00:29;;;;;;;7.03;1.92;;;16.30;99.90;;;16.44;100.00;100299.84;5050688;28;20080;-77
2022/06/09 07:02:56;;;;;;;5.93;2.00;;;16.40;99.90;;;16.56;100.00;100313.47;5030166;28;20105;-78
2022/06/09 07:05:53;;;;;;;8.90;3.50;;;16.50;99.90;;;16.55;100.00;100323.25;5029158;28;20508;-78
2022/06/09 07:08:21;;;;;;;7.32;2.92;;;15.60;99.90;;;16.52;100.00;100323.38;5028006;28;20046;-79
2022/06/09 07:10:48;;;;;;;7.90;2.47;;;16.50;99.90;;;16.41;100.00;100331.03;5026197;28;20053;-78
2022/06/09 07:13:16;;;;;;;8.30;2.97;;;16.60;99.90;;;16.59;100.00;100323.94;5012012;28;20054;-78
2022/06/09 07:15:43;;;;;;;8.75;3.30;;;16.60;99.90;;;16.64;100.00;100321.91;5004954;28;20122;-77
2022/06/09 07:18:10;;;;;;;12.55;2.97;;;16.60;99.90;;;16.71;100.00;100325.97;5025233;28;20046;-78
2022/06/09 07:20:40;;;;;;;7.70;2.75;;;16.60;99.90;;;16.81;100.00;100333.50;5034175;28;20037;-78
2022/06/09 07:23:08;;;;;;;12.50;3.42;;;16.70;99.90;;;16.77;100.00;100334.56;5029721;28;20124;-78
2022/06/09 07:25:37;;;;;;;8.82;2.70;;;16.70;99.90;;;16.81;100.00;100330.84;5035992;28;20042;-79
2022/06/09 07:28:06;;;;;;;7.15;2.38;;;16.80;99.90;;;16.92;100.00;100341.75;5030897;28;20057;-78
2022/06/09 07:30:33;;;;;;;6.45;2.45;;;16.90;99.90;;;16.99;100.00;100334.34;5012812;28;20049;-77
2022/06/09 07:33:00;;;;;;;5.88;2.00;;;16.90;99.90;;;17.06;100.00;100345.53;5029369;28;20111;-77
2022/06/09 07:35:31;;;;;;;7.60;2.03;;;16.90;99.80;;;16.93;100.00;100345.28;5029933;28;20055;-79
2022/06/09 07:37:58;;;;;;;4.45;2.03;;;17.00;99.50;;;17.04;100.00;100334.13;5029636;28;20073;-79
2022/06/09 07:41:35;;;;;;;6.45;2.10;;;17.00;99.40;;;17.02;100.00;100347.50;4997394;28;20145;-77
2022/06/09 07:44:06;;;;;;;5.53;2.03;;;17.00;99.30;;;17.14;100.00;100343.34;5012476;28;20050;-77
2022/06/09 07:46:34;;;;;;;6.70;2.38;;;17.10;99.80;;;17.25;100.00;100340.13;5029007;28;20107;-77
2022/06/09 07:49:03;;;;;;;6.18;1.90;;;17.10;99.80;;;17.35;100.00;100352.00;5028955;28;20046;-78
2022/06/09 07:51:30;;;;;;;5.90;2.13;;;17.20;99.10;;;17.36;100.00;100345.75;5029388;28;20051;-78
2022/06/09 07:53:58;;;;;;;4.25;2.08;;;17.30;99.40;;;17.38;100.00;100350.97;5029056;28;20052;-79
2022/06/09 07:56:26;;;;;;;3.67;1.90;;;17.30;99.00;;;17.39;100.00;100358.88;5029613;28;20068;-76
2022/06/09 07:58:54;;;;;;;7.20;2.25;;;17.30;98.80;;;17.43;100.00;100356.94;5028963;28;20096;-78
2022/06/09 08:01:22;;;;;;;9.77;2.30;;;15.30;98.40;;;17.19;100.00;100365.22;5013678;28;20049;-78
2022/06/09 08:03:50;;;;;;;5.53;2.42;;;17.30;98.70;;;17.15;100.00;100353.03;5030865;28;20120;-78
2022/06/09 08:06:17;;;;;;;6.30;2.40;;;17.20;98.70;;;17.30;100.00;100340.72;5027573;28;20077;-78
2022/06/09 08:08:57;;;;;;;6.93;2.05;;;17.20;98.70;;;17.51;100.00;100353.84;5027817;28;20053;-77
2022/06/09 08:11:28;;;;;;;7.25;2.45;;;17.30;98.70;;;17.37;100.00;100349.25;5027814;28;20053;-78
2022/06/09 08:13:58;;;;;;;6.57;2.10;;;17.30;98.40;;;17.44;100.00;100356.81;5028771;28;20053;-79
2022/06/09 08:16:26;;;;;;;7.05;2.33;;;17.30;98.50;;;17.37;100.00;100357.22;5027859;28;20521;-76
2022/06/09 08:18:54;;;;;;;5.80;2.70;;;17.30;97.80;;;17.46;100.00;100353.22;5026379;28;20152;-75
2022/06/09 08:21:22;;;;;;;9.13;2.75;;;17.30;97.90;;;17.49;100.00;100353.94;5023995;28;20076;-76
2022/06/09 08:24:08;;;;;;;8.77;3.20;;;17.40;98.10;;;17.59;100.00;100362.25;5027042;28;20544;-76
2022/06/09 08:26:35;;;;;;;6.18;2.65;;;17.40;98.30;;;17.74;100.00;100359.72;5025833;28;20056;-76
2022/06/09 08:29:03;;;;;;;7.65;2.50;;;17.50;98.20;;;17.79;100.00;100357.66;5042247;28;20053;-77
2022/06/09 08:31:30;;;;;;;10.32;2.55;;;17.60;97.90;;;17.83;100.00;100364.56;5044558;28;20279;-76
2022/06/09 08:33:57;;;;;;;6.43;2.40;;;17.70;97.50;;;17.79;100.00;100377.16;5045448;28;20130;-76
2022/06/09 08:36:24;;;;;;;8.00;2.47;;;17.70;97.30;;;17.81;100.00;100372.59;5028942;28;20136;-76
2022/06/09 08:38:53;;;;;;;7.47;2.65;;;17.80;97.20;;;17.82;100.00;100373.47;5027131;28;20123;-76
2022/06/09 08:41:47;;;;;;;6.30;2.60;;;17.80;96.90;;;17.96;100.00;100378.91;5028422;28;20462;-75
2022/06/09 08:44:25;;;;;;;14.27;3.55;;;17.80;97.10;;;17.81;100.00;100391.25;5045165;28;20076;-76
2022/06/09 08:47:14;;;;;;;7.03;2.55;;;17.80;97.00;;;17.83;100.00;100397.34;4997266;28;20042;-76
2022/06/09 08:49:57;;;;;;;12.02;2.78;;;17.70;96.90;;;17.93;100.00;100387.03;5028915;28;20045;-76
2022/06/09 08:52:57;;;;;;;6.03;2.33;;;17.70;97.20;;;18.04;100.00;100378.53;5030183;28;20049;-76
2022/06/09 08:55:39;;;;;;;;;;;17.90;97.10;;;18.04;100.00;100377.66;5028898;28;20088;-75
2022/06/09 08:58:36;;;;;;;7.07;2.88;;;17.90;97.00;;;18.20;100.00;100378.50;5028921;28;20543;-76
2022/06/09 09:01:22;;;;;;;7.22;2.13;;;17.90;97.20;;;18.39;100.00;100391.66;5028221;28;20164;-76
2022/06/09 09:03:57;;;;;;;5.18;2.22;;;18.10;97.00;;;18.33;100.00;100396.47;5029505;28;20045;-76
2022/06/09 09:06:47;;;;;;;10.40;2.30;;;18.10;96.80;;;18.17;100.00;100397.34;5025315;28;20042;-76
2022/06/09 09:09:28;;;;;;;7.15;2.40;;;18.10;96.70;;;18.31;100.00;100388.56;5025481;28;20041;-75
2022/06/09 09:12:22;;;;;;;8.05;2.45;;;18.10;96.70;;;18.43;100.00;100389.69;5011956;28;20171;-76
2022/06/09 09:15:17;;;;;;;7.13;2.72;;;18.20;96.70;;;18.28;100.00;100392.28;5028561;28;20045;-75
2022/06/09 09:18:35;;;;;;;8.43;2.75;;;18.20;96.60;;;18.21;100.00;100390.88;5028520;28;20061;-75
2022/06/09 09:21:37;;;;;;;7.88;3.38;;;18.10;96.70;;;18.30;100.00;100396.66;5028008;28;20524;-74
2022/06/09 09:24:14;;;;;;;7.90;2.30;;;18.10;96.80;;;18.40;100.00;100395.16;4998160;28;20608;-75
2022/06/09 09:27:02;;;;;;;5.38;1.90;;;18.20;96.60;;;18.45;100.00;100398.44;5029142;28;20049;-74
2022/06/09 09:29:35;;;;;;;6.75;2.95;;;18.30;96.50;;;18.60;100.00;100395.88;5029450;28;20558;-75
2022/06/09 09:32:22;;;;;;;5.20;1.80;;;18.30;96.60;;;18.49;100.00;100401.78;5043688;28;20034;-75
2022/06/09 09:34:52;;;;;;;5.38;2.22;;;18.40;95.90;;;18.48;100.00;100394.72;5042792;28;20073;-74
2022/06/09 09:37:29;;;;;;;6.57;2.35;;;18.40;96.00;;;18.78;100.00;100401.91;5044083;28;20096;-74
2022/06/09 09:40:25;;;;;;;11.93;2.65;;;18.40;96.00;;;18.92;100.00;100391.31;5044001;28;20038;-75
2022/06/09 09:43:03;;;;;;;6.57;1.83;;;18.60;95.80;;;18.90;100.00;100405.69;5043151;28;20069;-75
2022/06/09 09:45:37;;;;;;;6.68;2.60;;;19.50;95.60;;;18.97;100.00;100402.59;5043027;28;20045;-74
2022/06/09 09:48:24;;;;;;;9.20;3.10;;;18.70;95.50;;;19.18;100.00;100407.63;5033726;28;20046;-79
2022/06/09 09:51:13;;;;;;;8.40;2.47;;;18.90;95.90;;;19.13;100.00;100415.88;5033405;28;20037;-79
2022/06/09 09:53:46;;;;;;;9.63;2.38;;;19.00;95.20;;;18.95;100.00;100409.78;5021071;28;20134;-79
2022/06/09 09:56:16;;;;;;;6.25;3.00;;;19.00;95.20;;;19.11;100.00;100416.91;5032371;28;20498;-76
2022/06/09 09:58:46;;;;;;;;;;;19.00;95.60;;;19.47;100.00;100425.47;5031519;28;20050;-78
2022/06/09 10:01:22;;;;;;;8.40;2.30;;;19.10;95.70;;;19.31;100.00;100421.06;4983147;28;19989;-79
2022/06/09 10:10:28;;;;;;;5.30;1.80;;;19.00;94.80;;;19.23;100.00;100423.34;5027857;28;20041;-78
2022/06/09 10:12:57;;;;;;;8.27;2.03;;;19.00;94.70;;;19.27;100.00;100424.88;5030295;28;20065;-78
2022/06/09 10:15:26;;;;;;;6.87;1.63;;;19.10;94.30;;;19.38;100.00;100430.44;5013843;28;20060;-78
2022/06/09 10:18:20;;;;;;;8.13;2.28;;;19.20;95.00;;;19.32;100.00;100432.59;5014894;28;20041;-78
2022/06/09 10:21:13;;;;;;;4.50;1.60;;;19.10;94.80;;;19.68;96.35;100429.53;5043608;28;20033;-78
2022/06/09 10:23:59;;;;;;;5.18;2.10;;;19.30;93.80;;;19.65;99.40;100429.69;5037621;28;20041;-78
2022/06/09 10:26:34;;;;;;;4.72;2.53;;;19.40;93.90;;;19.96;100.00;100426.97;5030849;28;20482;-78
2022/06/09 10:29:16;;;;;;;7.85;2.03;;;19.60;94.30;;;19.78;98.82;100435.16;5013956;28;20133;-78
2022/06/09 10:31:59;;;;;;;3.78;1.65;;;19.70;93.80;;;19.97;100.00;100436.69;5032181;28;20045;-78
2022/06/09 10:35:06;;;;;;;11.98;4.18;;;19.60;94.10;;;19.94;97.28;100435.06;5032225;28;20065;-78
2022/06/09 10:38:16;;;;;;;10.32;2.00;;;19.70;93.80;;;19.97;98.02;100444.72;5017018;28;20045;-77
2022/06/09 10:40:50;;;;;;;4.78;1.88;;;19.70;93.70;;;20.10;98.06;100432.31;5016598;28;20445;-81
2022/06/09 10:43:40;;;;;;;5.72;2.17;;;19.80;93.90;;;20.43;92.99;100437.41;5025531;28;20053;-82
2022/06/09 10:55:14;;;;;;;8.05;2.05;;;19.90;93.40;;;20.53;92.51;100436.69;5010426;28;20049;-83
2022/06/09 10:56:01;;;;;;;8.43;2.60;;;20.20;93.30;;;20.33;85.72;100432.63;5047394;28;20121;-77
2022/06/09 10:58:45;;;;;;;7.35;2.42;;;20.40;92.20;;;20.61;90.38;100436.19;5046381;28;20044;-77
2022/06/09 11:01:25;;;;;;;6.13;2.42;;;20.20;92.80;;;20.59;92.11;100443.47;5015407;28;20045;-77